sensor_id;sensor_type;location;lat;lon;timestamp;pressure;altitude;pressure_sealevel;temperature;humidity
38812;BME280;24553;51.640;-0.752;2023-08-12T00:02:22;100785.53;;;19.39;100.00
38812;BME280;24553;51.640;-0.752;2023-08-12T00:04:47;100786.00;;;19.36;100.00
38812;BME280;24553;51.640;-0.752;2023-08-12T00:07:13;100786.47;;;19.33;100.00
38812;BME280;24553;51.640;-0.752;2023-08-12T00:09:38;100786.47;;;19.33;100.00
38812;BME280;24553;51.640;-0.752;2023-08-12T00:12:04;100785.19;;;19.36;100.00
38812;BME280;24553;51.640;-0.752;2023-08-12T00:14:29;100781.09;;;19.33;100.00
38812;BME280;24553;51.640;-0.752;2023-08-12T00:16:54;100770.03;;;19.30;100.00
38812;BME280;24553;51.640;-0.752;2023-08-12T00:19:20;100774.50;;;19.24;100.00
38812;BME280;24553;51.640;-0.752;2023-08-12T00:21:45;100775.53;;;19.23;100.00
38812;BME280;24553;51.640;-0.752;2023-08-12T00:24:11;100784.94;;;19.21;100.00
38812;BME280;24553;51.640;-0.752;2023-08-12T00:26:36;100769.59;;;19.21;100.00
38812;BME280;24553;51.640;-0.752;2023-08-12T00:29:01;100780.06;;;19.06;100.00
38812;BME280;24553;51.640;-0.752;2023-08-12T00:31:27;100773.72;;;19.12;100.00
38812;BME280;24553;51.640;-0.752;2023-08-12T00:33:53;100772.91;;;19.11;100.00
38812;BME280;24553;51.640;-0.752;2023-08-12T00:36:18;100770.13;;;19.06;100.00
38812;BME280;24553;51.640;-0.752;2023-08-12T00:38:43;100773.22;;;18.98;100.00
38812;BME280;24553;51.640;-0.752;2023-08-12T00:41:09;100767.38;;;18.89;100.00
38812;BME280;24553;51.640;-0.752;2023-08-12T00:43:34;100775.81;;;18.81;100.00
38812;BME280;24553;51.640;-0.752;2023-08-12T00:45:59;100767.03;;;18.74;100.00
38812;BME280;24553;51.640;-0.752;2023-08-12T00:48:25;100764.34;;;18.74;100.00
38812;BME280;24553;51.640;-0.752;2023-08-12T00:50:51;100767.44;;;18.78;100.00
38812;BME280;24553;51.640;-0.752;2023-08-12T00:53:17;100763.81;;;18.72;100.00
38812;BME280;24553;51.640;-0.752;2023-08-12T00:55:43;100760.06;;;18.73;100.00
38812;BME280;24553;51.640;-0.752;2023-08-12T00:58:08;100765.31;;;18.68;100.00
38812;BME280;24553;51.640;-0.752;2023-08-12T01:00:33;100762.91;;;18.55;100.00
38812;BME280;24553;51.640;-0.752;2023-08-12T01:03:00;100764.78;;;18.42;100.00
38812;BME280;24553;51.640;-0.752;2023-08-12T01:05:25;100766.88;;;18.40;100.00
38812;BME280;24553;51.640;-0.752;2023-08-12T01:07:51;100762.69;;;18.44;100.00
38812;BME280;24553;51.640;-0.752;2023-08-12T01:10:19;100762.69;;;18.44;100.00
38812;BME280;24553;51.640;-0.752;2023-08-12T01:13:02;100764.78;;;18.42;100.00
38812;BME280;24553;51.640;-0.752;2023-08-12T01:15:32;100760.13;;;18.38;100.00
38812;BME280;24553;51.640;-0.752;2023-08-12T01:18:00;100772.16;;;18.35;100.00
38812;BME280;24553;51.640;-0.752;2023-08-12T01:20:25;100756.88;;;18.36;100.00
38812;BME280;24553;51.640;-0.752;2023-08-12T01:22:57;100760.25;;;18.31;100.00
38812;BME280;24553;51.640;-0.752;2023-08-12T01:25:26;100762.72;;;18.21;100.00
38812;BME280;24553;51.640;-0.752;2023-08-12T01:27:51;100763.44;;;18.28;100.00
38812;BME280;24553;51.640;-0.752;2023-08-12T01:30:18;100769.00;;;18.26;100.00
38812;BME280;24553;51.640;-0.752;2023-08-12T01:33:00;100769.47;;;18.35;100.00
38812;BME280;24553;51.640;-0.752;2023-08-12T01:35:33;100772.88;;;18.30;100.00
38812;BME280;24553;51.640;-0.752;2023-08-12T01:38:02;100773.69;;;18.31;100.00
38812;BME280;24553;51.640;-0.752;2023-08-12T01:40:29;100774.84;;;18.35;100.00
38812;BME280;24553;51.640;-0.752;2023-08-12T01:42:56;100767.25;;;18.32;100.00
38812;BME280;24553;51.640;-0.752;2023-08-12T01:45:22;100762.94;;;18.31;100.00
38812;BME280;24553;51.640;-0.752;2023-08-12T01:47:48;100765.03;;;18.29;100.00
38812;BME280;24553;51.640;-0.752;2023-08-12T01:50:16;100768.44;;;18.24;100.00
38812;BME280;24553;51.640;-0.752;2023-08-12T01:52:41;100770.78;;;18.21;100.00
38812;BME280;24553;51.640;-0.752;2023-08-12T01:55:07;100757.56;;;18.19;100.00
38812;BME280;24553;51.640;-0.752;2023-08-12T01:57:32;100766.22;;;18.21;100.00
38812;BME280;24553;51.640;-0.752;2023-08-12T01:59:58;100757.69;;;18.24;100.00
38812;BME280;24553;51.640;-0.752;2023-08-12T02:02:23;100773.56;;;18.26;100.00
38812;BME280;24553;51.640;-0.752;2023-08-12T02:04:48;100769.59;;;18.28;100.00
38812;BME280;24553;51.640;-0.752;2023-08-12T02:07:13;100779.16;;;18.36;100.00
38812;BME280;24553;51.640;-0.752;2023-08-12T02:09:39;100761.53;;;18.40;100.00
38812;BME280;24553;51.640;-0.752;2023-08-12T02:12:05;100765.75;;;18.36;100.00
38812;BME280;24553;51.640;-0.752;2023-08-12T02:14:30;100759.19;;;18.32;100.00
38812;BME280;24553;51.640;-0.752;2023-08-12T02:16:55;100760.50;;;18.29;100.00
38812;BME280;24553;51.640;-0.752;2023-08-12T02:19:21;100760.75;;;18.28;100.00
38812;BME280;24553;51.640;-0.752;2023-08-12T02:21:46;100753.25;;;18.42;100.00
38812;BME280;24553;51.640;-0.752;2023-08-12T02:24:11;100763.28;;;18.35;100.00
38812;BME280;24553;51.640;-0.752;2023-08-12T02:26:37;100754.41;;;18.46;100.00
38812;BME280;24553;51.640;-0.752;2023-08-12T02:29:02;100750.78;;;18.52;100.00
38812;BME280;24553;51.640;-0.752;2023-08-12T02:31:28;100746.59;;;18.44;100.00
38812;BME280;24553;51.640;-0.752;2023-08-12T02:33:53;100742.50;;;18.42;100.00
38812;BME280;24553;51.640;-0.752;2023-08-12T02:36:18;100745.19;;;18.30;100.00
38812;BME280;24553;51.640;-0.752;2023-08-12T02:38:44;100752.91;;;18.38;100.00
38812;BME280;24553;51.640;-0.752;2023-08-12T02:41:09;100748.00;;;18.35;100.00
38812;BME280;24553;51.640;-0.752;2023-08-12T02:43:35;100743.69;;;18.34;100.00
38812;BME280;24553;51.640;-0.752;2023-08-12T02:46:00;100744.38;;;18.41;100.00
38812;BME280;24553;51.640;-0.752;2023-08-12T02:48:25;100748.94;;;18.41;100.00
38812;BME280;24553;51.640;-0.752;2023-08-12T02:50:51;100746.38;;;18.34;100.00
38812;BME280;24553;51.640;-0.752;2023-08-12T02:53:17;100749.38;;;18.49;100.00
38812;BME280;24553;51.640;-0.752;2023-08-12T02:55:42;100741.09;;;18.51;100.00
38812;BME280;24553;51.640;-0.752;2023-08-12T02:58:09;100736.28;;;18.53;100.00
38812;BME280;24553;51.640;-0.752;2023-08-12T03:00:34;100738.97;;;18.53;100.00
38812;BME280;24553;51.640;-0.752;2023-08-12T03:03:00;100735.38;;;18.47;100.00
38812;BME280;24553;51.640;-0.752;2023-08-12T03:05:25;100731.88;;;18.47;100.00
38812;BME280;24553;51.640;-0.752;2023-08-12T03:07:50;100739.81;;;18.42;100.00
38812;BME280;24553;51.640;-0.752;2023-08-12T03:10:17;100732.09;;;18.45;100.00
38812;BME280;24553;51.640;-0.752;2023-08-12T03:12:42;100727.91;;;18.49;100.00
38812;BME280;24553;51.640;-0.752;2023-08-12T03:15:08;100727.66;;;18.51;100.00
38812;BME280;24553;51.640;-0.752;2023-08-12T03:17:33;100731.19;;;18.40;100.00
38812;BME280;24553;51.640;-0.752;2023-08-12T03:19:59;100727.09;;;18.49;100.00
38812;BME280;24553;51.640;-0.752;2023-08-12T03:22:26;100735.38;;;18.47;100.00
38812;BME280;24553;51.640;-0.752;2023-08-12T03:24:52;100724.63;;;18.47;100.00
38812;BME280;24553;51.640;-0.752;2023-08-12T03:27:17;100719.25;;;18.47;100.00
38812;BME280;24553;51.640;-0.752;2023-08-12T03:29:42;100714.25;;;18.39;100.00
38812;BME280;24553;51.640;-0.752;2023-08-12T03:32:08;100709.81;;;18.45;100.00
38812;BME280;24553;51.640;-0.752;2023-08-12T03:34:33;100701.16;;;18.43;100.00
38812;BME280;24553;51.640;-0.752;2023-08-12T03:36:58;100701.81;;;18.33;100.00
38812;BME280;24553;51.640;-0.752;2023-08-12T03:39:24;100696.31;;;18.28;100.00
38812;BME280;24553;51.640;-0.752;2023-08-12T03:41:49;100693.88;;;18.15;100.00
38812;BME280;24553;51.640;-0.752;2023-08-12T03:44:15;100699.25;;;18.15;100.00
38812;BME280;24553;51.640;-0.752;2023-08-12T03:46:41;100699.59;;;18.18;100.00
38812;BME280;24553;51.640;-0.752;2023-08-12T03:49:06;100698.31;;;18.21;100.00
38812;BME280;24553;51.640;-0.752;2023-08-12T03:51:31;100695.38;;;18.22;100.00
38812;BME280;24553;51.640;-0.752;2023-08-12T03:53:57;100691.78;;;18.17;100.00
38812;BME280;24553;51.640;-0.752;2023-08-12T03:56:23;100694.13;;;18.13;100.00
38812;BME280;24553;51.640;-0.752;2023-08-12T03:58:48;100688.97;;;18.12;100.00
38812;BME280;24553;51.640;-0.752;2023-08-12T04:01:13;100681.53;;;18.14;100.00
38812;BME280;24553;51.640;-0.752;2023-08-12T04:03:38;100682.22;;;18.21;100.00
38812;BME280;24553;51.640;-0.752;2023-08-12T04:06:04;100685.00;;;18.26;100.00
38812;BME280;24553;51.640;-0.752;2023-08-12T04:08:29;100678.34;;;18.28;100.00
38812;BME280;24553;51.640;-0.752;2023-08-12T04:10:55;100689.66;;;18.30;100.00
38812;BME280;24553;51.640;-0.752;2023-08-12T04:13:20;100683.34;;;18.37;100.00
38812;BME280;24553;51.640;-0.752;2023-08-12T04:15:50;100682.47;;;18.48;100.00
38812;BME280;24553;51.640;-0.752;2023-08-12T04:18:16;100675.00;;;18.50;100.00
38812;BME280;24553;51.640;-0.752;2023-08-12T04:20:41;100678.50;;;18.50;100.00
38812;BME280;24553;51.640;-0.752;2023-08-12T04:23:07;100682.97;;;18.45;100.00
38812;BME280;24553;51.640;-0.752;2023-08-12T04:25:32;100681.94;;;18.46;100.00
38812;BME280;24553;51.640;-0.752;2023-08-12T04:27:57;100680.97;;;18.52;100.00
38812;BME280;24553;51.640;-0.752;2023-08-12T04:30:23;100669.50;;;18.57;100.00
38812;BME280;24553;51.640;-0.752;2023-08-12T04:32:48;100665.63;;;18.64;100.00
38812;BME280;24553;51.640;-0.752;2023-08-12T04:35:13;100661.09;;;18.53;100.00
38812;BME280;24553;51.640;-0.752;2023-08-12T04:37:39;100654.81;;;18.47;100.00
38812;BME280;24553;51.640;-0.752;2023-08-12T04:40:05;100650.44;;;18.41;100.00
38812;BME280;24553;51.640;-0.752;2023-08-12T04:42:30;100658.75;;;18.28;100.00
38812;BME280;24553;51.640;-0.752;2023-08-12T04:44:55;100660.88;;;18.14;100.00
38812;BME280;24553;51.640;-0.752;2023-08-12T04:47:21;100655.59;;;18.19;100.00
38812;BME280;24553;51.640;-0.752;2023-08-12T04:49:46;100652.91;;;18.19;100.00
38812;BME280;24553;51.640;-0.752;2023-08-12T04:52:11;100653.63;;;18.15;100.00
38812;BME280;24553;51.640;-0.752;2023-08-12T04:54:37;100647.69;;;18.13;100.00
38812;BME280;24553;51.640;-0.752;2023-08-12T04:57:02;100646.69;;;18.02;100.00
38812;BME280;24553;51.640;-0.752;2023-08-12T04:59:28;100660.31;;;18.00;100.00
38812;BME280;24553;51.640;-0.752;2023-08-12T05:01:53;100659.03;;;18.03;100.00
38812;BME280;24553;51.640;-0.752;2023-08-12T05:04:18;100657.03;;;17.98;100.00
38812;BME280;24553;51.640;-0.752;2023-08-12T05:06:43;100655.91;;;17.94;100.00
38812;BME280;24553;51.640;-0.752;2023-08-12T05:09:09;100650.88;;;17.98;100.00
38812;BME280;24553;51.640;-0.752;2023-08-12T05:11:34;100662.84;;;18.07;100.00
38812;BME280;24553;51.640;-0.752;2023-08-12T05:13:59;100654.69;;;18.14;100.00
38812;BME280;24553;51.640;-0.752;2023-08-12T05:16:26;100658.16;;;18.26;100.00
38812;BME280;24553;51.640;-0.752;2023-08-12T05:18:51;100662.44;;;18.39;100.00
38812;BME280;24553;51.640;-0.752;2023-08-12T05:21:17;100658.22;;;18.43;100.00
38812;BME280;24553;51.640;-0.752;2023-08-12T05:23:42;100656.81;;;18.52;100.00
38812;BME280;24553;51.640;-0.752;2023-08-12T05:26:07;100646.38;;;18.56;100.00
38812;BME280;24553;51.640;-0.752;2023-08-12T05:28:33;100641.75;;;18.51;100.00
38812;BME280;24553;51.640;-0.752;2023-08-12T05:30:58;100637.91;;;18.47;100.00
38812;BME280;24553;51.640;-0.752;2023-08-12T05:33:23;100642.28;;;18.36;100.00
38812;BME280;24553;51.640;-0.752;2023-08-12T05:35:49;100637.19;;;18.23;100.00
38812;BME280;24553;51.640;-0.752;2023-08-12T05:38:15;100641.47;;;18.24;100.00
38812;BME280;24553;51.640;-0.752;2023-08-12T05:40:41;100645.25;;;18.11;100.00
38812;BME280;24553;51.640;-0.752;2023-08-12T05:43:06;100644.88;;;18.19;100.00
38812;BME280;24553;51.640;-0.752;2023-08-12T05:45:31;100634.44;;;18.35;100.00
38812;BME280;24553;51.640;-0.752;2023-08-12T05:47:57;100637.31;;;18.45;100.00
38812;BME280;24553;51.640;-0.752;2023-08-12T05:50:22;100627.84;;;18.54;100.00
38812;BME280;24553;51.640;-0.752;2023-08-12T05:52:47;100634.63;;;18.73;100.00
38812;BME280;24553;51.640;-0.752;2023-08-12T05:55:12;100643.47;;;18.86;100.00
38812;BME280;24553;51.640;-0.752;2023-08-12T05:57:38;100646.13;;;18.98;100.00
38812;BME280;24553;51.640;-0.752;2023-08-12T06:00:04;100641.31;;;19.16;100.00
38812;BME280;24553;51.640;-0.752;2023-08-12T06:02:29;100632.03;;;19.24;100.00
38812;BME280;24553;51.640;-0.752;2023-08-12T06:04:54;100645.22;;;19.26;100.00
38812;BME280;24553;51.640;-0.752;2023-08-12T06:07:20;100645.97;;;19.21;100.00
38812;BME280;24553;51.640;-0.752;2023-08-12T06:09:45;100641.78;;;19.30;100.00
38812;BME280;24553;51.640;-0.752;2023-08-12T06:12:10;100634.22;;;19.44;100.00
38812;BME280;24553;51.640;-0.752;2023-08-12T06:14:39;100646.69;;;19.50;100.00
38812;BME280;24553;51.640;-0.752;2023-08-12T06:17:04;100631.19;;;19.57;100.00
38812;BME280;24553;51.640;-0.752;2023-08-12T06:19:30;100637.88;;;19.55;100.00
38812;BME280;24553;51.640;-0.752;2023-08-12T06:21:55;100639.50;;;19.56;100.00
38812;BME280;24553;51.640;-0.752;2023-08-12T06:24:20;100637.16;;;19.59;100.00
38812;BME280;24553;51.640;-0.752;2023-08-12T06:26:46;100635.59;;;19.80;100.00
38812;BME280;24553;51.640;-0.752;2023-08-12T06:29:11;100633.13;;;19.79;100.00
38812;BME280;24553;51.640;-0.752;2023-08-12T06:31:36;100634.34;;;19.88;100.00
38812;BME280;24553;51.640;-0.752;2023-08-12T06:34:02;100632.13;;;19.85;100.00
38812;BME280;24553;51.640;-0.752;2023-08-12T06:36:27;100635.59;;;20.02;100.00
38812;BME280;24553;51.640;-0.752;2023-08-12T06:38:53;100633.53;;;20.10;100.00
38812;BME280;24553;51.640;-0.752;2023-08-12T06:41:18;100633.34;;;20.16;100.00
38812;BME280;24553;51.640;-0.752;2023-08-12T06:43:43;100633.22;;;20.06;100.00
38812;BME280;24553;51.640;-0.752;2023-08-12T06:46:09;100637.28;;;20.09;100.00
38812;BME280;24553;51.640;-0.752;2023-08-12T06:48:34;100632.56;;;20.21;100.00
38812;BME280;24553;51.640;-0.752;2023-08-12T06:50:59;100630.94;;;20.42;100.00
38812;BME280;24553;51.640;-0.752;2023-08-12T06:53:26;100625.88;;;20.45;100.00
38812;BME280;24553;51.640;-0.752;2023-08-12T06:55:51;100635.97;;;20.55;100.00
38812;BME280;24553;51.640;-0.752;2023-08-12T06:58:17;100632.19;;;20.56;100.00
38812;BME280;24553;51.640;-0.752;2023-08-12T07:00:42;100631.69;;;20.59;100.00
38812;BME280;24553;51.640;-0.752;2023-08-12T07:03:08;100634.19;;;20.66;100.00
38812;BME280;24553;51.640;-0.752;2023-08-12T07:05:33;100636.19;;;20.76;100.00
38812;BME280;24553;51.640;-0.752;2023-08-12T07:07:58;100639.25;;;20.89;100.00
38812;BME280;24553;51.640;-0.752;2023-08-12T07:10:24;100630.66;;;20.92;100.00
38812;BME280;24553;51.640;-0.752;2023-08-12T07:12:49;100631.41;;;21.15;100.00
38812;BME280;24553;51.640;-0.752;2023-08-12T07:15:14;100625.44;;;21.13;100.00
38812;BME280;24553;51.640;-0.752;2023-08-12T07:17:40;100620.34;;;21.17;100.00
38812;BME280;24553;51.640;-0.752;2023-08-12T07:20:06;100627.44;;;21.28;100.00
38812;BME280;24553;51.640;-0.752;2023-08-12T07:22:32;100633.84;;;21.22;100.00
38812;BME280;24553;51.640;-0.752;2023-08-12T07:24:57;100625.69;;;21.44;100.00
38812;BME280;24553;51.640;-0.752;2023-08-12T07:27:25;100625.56;;;21.28;100.00
38812;BME280;24553;51.640;-0.752;2023-08-12T07:29:50;100629.31;;;21.60;100.00
38812;BME280;24553;51.640;-0.752;2023-08-12T07:32:16;100628.03;;;21.72;100.00
38812;BME280;24553;51.640;-0.752;2023-08-12T07:34:41;100617.44;;;21.61;100.00
38812;BME280;24553;51.640;-0.752;2023-08-12T07:37:06;100624.72;;;21.60;100.00
38812;BME280;24553;51.640;-0.752;2023-08-12T07:39:32;100622.88;;;21.71;100.00
38812;BME280;24553;51.640;-0.752;2023-08-12T07:41:57;100610.59;;;21.95;100.00
38812;BME280;24553;51.640;-0.752;2023-08-12T07:44:22;100607.78;;;22.38;100.00
38812;BME280;24553;51.640;-0.752;2023-08-12T07:46:48;100612.16;;;22.44;100.00
38812;BME280;24553;51.640;-0.752;2023-08-12T07:49:15;100613.72;;;22.35;100.00
38812;BME280;24553;51.640;-0.752;2023-08-12T07:51:40;100605.34;;;22.26;100.00
38812;BME280;24553;51.640;-0.752;2023-08-12T07:54:06;100604.78;;;22.19;100.00
38812;BME280;24553;51.640;-0.752;2023-08-12T07:56:31;100602.88;;;22.19;100.00
38812;BME280;24553;51.640;-0.752;2023-08-12T07:58:57;100601.59;;;22.37;100.00
38812;BME280;24553;51.640;-0.752;2023-08-12T08:01:22;100605.91;;;22.28;100.00
38812;BME280;24553;51.640;-0.752;2023-08-12T08:03:47;100611.81;;;22.30;100.00
38812;BME280;24553;51.640;-0.752;2023-08-12T08:06:13;100601.50;;;22.17;100.00
38812;BME280;24553;51.640;-0.752;2023-08-12T08:08:38;100602.91;;;22.25;100.00
38812;BME280;24553;51.640;-0.752;2023-08-12T08:11:03;100603.19;;;22.23;100.00
38812;BME280;24553;51.640;-0.752;2023-08-12T08:13:29;100608.22;;;22.14;100.00
38812;BME280;24553;51.640;-0.752;2023-08-12T08:15:54;100604.00;;;22.34;100.00
38812;BME280;24553;51.640;-0.752;2023-08-12T08:18:20;100593.75;;;22.26;100.00
38812;BME280;24553;51.640;-0.752;2023-08-12T08:20:45;100597.31;;;22.52;100.00
38812;BME280;24553;51.640;-0.752;2023-08-12T08:23:11;100600.25;;;22.50;100.00
38812;BME280;24553;51.640;-0.752;2023-08-12T08:25:36;100599.72;;;22.48;100.00
38812;BME280;24553;51.640;-0.752;2023-08-12T08:28:02;100595.13;;;22.43;100.00
38812;BME280;24553;51.640;-0.752;2023-08-12T08:30:28;100587.06;;;22.59;100.00
38812;BME280;24553;51.640;-0.752;2023-08-12T08:32:54;100590.28;;;22.56;100.00
38812;BME280;24553;51.640;-0.752;2023-08-12T08:35:19;100588.13;;;22.58;100.00
38812;BME280;24553;51.640;-0.752;2023-08-12T08:37:45;100593.81;;;22.67;100.00
38812;BME280;24553;51.640;-0.752;2023-08-12T08:40:10;100587.59;;;22.86;100.00
38812;BME280;24553;51.640;-0.752;2023-08-12T08:42:37;100586.81;;;23.12;100.00
38812;BME280;24553;51.640;-0.752;2023-08-12T08:45:02;100589.75;;;23.25;100.00
38812;BME280;24553;51.640;-0.752;2023-08-12T08:47:31;100580.25;;;23.43;100.00
38812;BME280;24553;51.640;-0.752;2023-08-12T08:49:58;100585.41;;;23.45;100.00
38812;BME280;24553;51.640;-0.752;2023-08-12T08:52:24;100582.66;;;23.60;100.00
38812;BME280;24553;51.640;-0.752;2023-08-12T08:54:50;100580.75;;;23.61;100.00
38812;BME280;24553;51.640;-0.752;2023-08-12T08:57:16;100573.63;;;23.90;100.00
38812;BME280;24553;51.640;-0.752;2023-08-12T08:59:42;100582.56;;;23.96;100.00
38812;BME280;24553;51.640;-0.752;2023-08-12T09:02:14;100580.47;;;23.83;100.00
38812;BME280;24553;51.640;-0.752;2023-08-12T09:04:41;100576.66;;;23.84;100.00
38812;BME280;24553;51.640;-0.752;2023-08-12T09:07:07;100586.41;;;23.80;100.00
38812;BME280;24553;51.640;-0.752;2023-08-12T09:09:33;100585.66;;;23.43;100.00
38812;BME280;24553;51.640;-0.752;2023-08-12T09:11:59;100571.09;;;23.39;100.00
38812;BME280;24553;51.640;-0.752;2023-08-12T09:14:24;100578.34;;;23.49;100.00
38812;BME280;24553;51.640;-0.752;2023-08-12T09:16:50;100568.84;;;23.57;100.00
38812;BME280;24553;51.640;-0.752;2023-08-12T09:19:15;100556.38;;;23.71;100.00
38812;BME280;24553;51.640;-0.752;2023-08-12T09:21:41;100582.16;;;23.43;100.00
38812;BME280;24553;51.640;-0.752;2023-08-12T09:24:07;100575.66;;;23.39;100.00
38812;BME280;24553;51.640;-0.752;2023-08-12T09:26:33;100585.44;;;23.24;100.00
38812;BME280;24553;51.640;-0.752;2023-08-12T09:28:59;100598.94;;;22.89;100.00
38812;BME280;24553;51.640;-0.752;2023-08-12T09:31:27;100600.28;;;22.71;100.00
38812;BME280;24553;51.640;-0.752;2023-08-12T09:33:53;100611.38;;;22.84;100.00
38812;BME280;24553;51.640;-0.752;2023-08-12T09:36:21;100621.09;;;22.60;100.00
38812;BME280;24553;51.640;-0.752;2023-08-12T09:38:47;100624.34;;;22.72;100.00
38812;BME280;24553;51.640;-0.752;2023-08-12T09:41:12;100624.06;;;22.69;100.00
38812;BME280;24553;51.640;-0.752;2023-08-12T09:43:44;100615.97;;;22.74;100.00
38812;BME280;24553;51.640;-0.752;2023-08-12T09:46:13;100623.00;;;22.64;100.00
38812;BME280;24553;51.640;-0.752;2023-08-12T09:48:41;100625.31;;;22.30;100.00
38812;BME280;24553;51.640;-0.752;2023-08-12T09:51:07;100615.88;;;22.28;100.00
38812;BME280;24553;51.640;-0.752;2023-08-12T09:53:33;100622.13;;;22.33;100.00
38812;BME280;24553;51.640;-0.752;2023-08-12T09:56:05;100618.31;;;22.34;100.00
38812;BME280;24553;51.640;-0.752;2023-08-12T09:58:32;100619.69;;;22.42;100.00
38812;BME280;24553;51.640;-0.752;2023-08-12T10:00:58;100629.19;;;22.50;100.00
38812;BME280;24553;51.640;-0.752;2023-08-12T10:03:25;100635.53;;;22.18;100.00
38812;BME280;24553;51.640;-0.752;2023-08-12T10:05:51;100633.97;;;22.27;100.00
38812;BME280;24553;51.640;-0.752;2023-08-12T10:08:18;100640.91;;;22.08;100.00
38812;BME280;24553;51.640;-0.752;2023-08-12T10:10:43;100644.28;;;21.83;100.00
38812;BME280;24553;51.640;-0.752;2023-08-12T10:13:10;100642.97;;;21.90;100.00
38812;BME280;24553;51.640;-0.752;2023-08-12T10:15:36;100647.63;;;22.00;100.00
38812;BME280;24553;51.640;-0.752;2023-08-12T10:18:02;100637.22;;;22.29;100.00
38812;BME280;24553;51.640;-0.752;2023-08-12T10:20:29;100624.34;;;22.62;100.00
38812;BME280;24553;51.640;-0.752;2023-08-12T10:22:56;100616.00;;;23.04;100.00
38812;BME280;24553;51.640;-0.752;2023-08-12T10:25:24;100610.31;;;23.42;100.00
38812;BME280;24553;51.640;-0.752;2023-08-12T10:27:51;100615.94;;;23.76;100.00
38812;BME280;24553;51.640;-0.752;2023-08-12T10:30:16;100608.38;;;23.73;100.00
38812;BME280;24553;51.640;-0.752;2023-08-12T10:32:42;100605.31;;;23.90;100.00
38812;BME280;24553;51.640;-0.752;2023-08-12T10:35:08;100599.00;;;24.10;100.00
38812;BME280;24553;51.640;-0.752;2023-08-12T10:37:34;100596.56;;;24.08;100.00
38812;BME280;24553;51.640;-0.752;2023-08-12T10:40:19;100585.44;;;24.15;100.00
38812;BME280;24553;51.640;-0.752;2023-08-12T10:42:47;100574.91;;;24.08;100.00
38812;BME280;24553;51.640;-0.752;2023-08-12T10:45:14;100586.41;;;23.75;100.00
38812;BME280;24553;51.640;-0.752;2023-08-12T10:47:43;100580.50;;;23.72;100.00
38812;BME280;24553;51.640;-0.752;2023-08-12T10:50:21;100571.22;;;23.89;100.00
38812;BME280;24553;51.640;-0.752;2023-08-12T10:52:47;100569.22;;;24.10;100.00
38812;BME280;24553;51.640;-0.752;2023-08-12T10:55:22;100574.22;;;23.77;100.00
38812;BME280;24553;51.640;-0.752;2023-08-12T10:57:49;100604.88;;;23.57;100.00
38812;BME280;24553;51.640;-0.752;2023-08-12T11:00:16;100616.78;;;22.74;100.00
38812;BME280;24553;51.640;-0.752;2023-08-12T11:02:47;100609.66;;;22.32;100.00
38812;BME280;24553;51.640;-0.752;2023-08-12T11:05:13;100608.75;;;22.06;100.00
38812;BME280;24553;51.640;-0.752;2023-08-12T11:10:17;100597.03;;;22.74;100.00
38812;BME280;24553;51.640;-0.752;2023-08-12T11:12:53;100597.84;;;22.95;100.00
38812;BME280;24553;51.640;-0.752;2023-08-12T11:18:09;100596.19;;;23.65;100.00
38812;BME280;24553;51.640;-0.752;2023-08-12T11:20:36;100585.56;;;23.89;100.00
38812;BME280;24553;51.640;-0.752;2023-08-12T11:23:03;100579.28;;;24.04;100.00
38812;BME280;24553;51.640;-0.752;2023-08-12T11:25:29;100572.66;;;24.21;100.00
38812;BME280;24553;51.640;-0.752;2023-08-12T11:27:55;100574.13;;;24.52;100.00
38812;BME280;24553;51.640;-0.752;2023-08-12T11:30:21;100577.56;;;24.97;100.00
38812;BME280;24553;51.640;-0.752;2023-08-12T11:32:49;100564.06;;;25.51;100.00
38812;BME280;24553;51.640;-0.752;2023-08-12T11:35:15;100565.94;;;25.74;100.00
38812;BME280;24553;51.640;-0.752;2023-08-12T11:37:43;100559.88;;;25.82;100.00
38812;BME280;24553;51.640;-0.752;2023-08-12T11:40:10;100561.22;;;25.61;100.00
38812;BME280;24553;51.640;-0.752;2023-08-12T11:42:41;100552.94;;;25.23;100.00
38812;BME280;24553;51.640;-0.752;2023-08-12T11:45:07;100546.78;;;24.83;100.00
38812;BME280;24553;51.640;-0.752;2023-08-12T11:47:37;100549.59;;;24.68;100.00
38812;BME280;24553;51.640;-0.752;2023-08-12T11:50:04;100545.34;;;24.91;100.00
38812;BME280;24553;51.640;-0.752;2023-08-12T11:52:30;100542.16;;;25.42;100.00
38812;BME280;24553;51.640;-0.752;2023-08-12T11:54:56;100545.47;;;26.06;100.00
38812;BME280;24553;51.640;-0.752;2023-08-12T11:57:22;100543.16;;;25.94;100.00
38812;BME280;24553;51.640;-0.752;2023-08-12T11:59:49;100538.91;;;25.88;100.00
38812;BME280;24553;51.640;-0.752;2023-08-12T12:02:15;100541.06;;;25.67;100.00
38812;BME280;24553;51.640;-0.752;2023-08-12T12:04:41;100543.16;;;25.51;100.00
38812;BME280;24553;51.640;-0.752;2023-08-12T12:07:21;100528.94;;;25.78;100.00
38812;BME280;24553;51.640;-0.752;2023-08-12T12:09:51;100525.72;;;25.76;100.00
38812;BME280;24553;51.640;-0.752;2023-08-12T12:12:17;100534.72;;;25.96;100.00
38812;BME280;24553;51.640;-0.752;2023-08-12T12:14:43;100534.81;;;25.18;100.00
38812;BME280;24553;51.640;-0.752;2023-08-12T12:17:08;100539.38;;;25.23;100.00
38812;BME280;24553;51.640;-0.752;2023-08-12T12:19:35;100540.25;;;25.13;100.00
38812;BME280;24553;51.640;-0.752;2023-08-12T12:22:03;100539.56;;;24.73;100.00
38812;BME280;24553;51.640;-0.752;2023-08-12T12:24:29;100539.41;;;24.54;100.00
38812;BME280;24553;51.640;-0.752;2023-08-12T12:26:56;100538.66;;;24.49;100.00
38812;BME280;24553;51.640;-0.752;2023-08-12T12:29:21;100534.19;;;24.68;100.00
38812;BME280;24553;51.640;-0.752;2023-08-12T12:31:47;100533.16;;;24.88;100.00